createdAt,value
2022-08-30T00:01:31.741Z,4.32
2022-08-30T00:03:59.406Z,7.22
2022-08-30T00:06:27.182Z,3.15
2022-08-30T00:08:53.878Z,2.92
2022-08-30T00:11:24.464Z,3.65
2022-08-30T00:13:53.245Z,3.83
2022-08-30T00:16:21.883Z,4.00
2022-08-30T00:18:48.950Z,4.65
2022-08-30T00:21:15.613Z,6.60
2022-08-30T00:23:42.543Z,3.25
2022-08-30T00:26:09.150Z,5.65
2022-08-30T00:28:37.327Z,5.32
2022-08-30T00:31:05.367Z,4.00
2022-08-30T00:33:31.939Z,3.97
2022-08-30T00:35:58.775Z,4.53
2022-08-30T00:38:25.395Z,3.70
2022-08-30T00:40:52.508Z,4.05
2022-08-30T00:43:27.844Z,6.90
2022-08-30T00:45:55.459Z,4.72
2022-08-30T00:48:22.710Z,8.25
2022-08-30T00:50:54.157Z,5.88
2022-08-30T00:53:24.898Z,4.63
2022-08-30T00:55:53.926Z,4.40
2022-08-30T00:58:27.238Z,6.90
2022-08-30T01:00:56.781Z,6.93
2022-08-30T01:03:23.583Z,3.38
2022-08-30T01:09:36.785Z,3.92
2022-08-30T01:12:05.432Z,5.68
2022-08-30T01:14:34.006Z,6.07
2022-08-30T01:17:02.623Z,5.25
2022-08-30T01:19:35.816Z,5.75
2022-08-30T01:22:37.898Z,4.03
2022-08-30T01:27:38.773Z,8.52
2022-08-30T01:30:06.616Z,5.13
2022-08-30T01:32:40.070Z,4.10
2022-08-30T01:35:07.703Z,4.28
2022-08-30T01:37:36.566Z,4.63
2022-08-30T01:40:04.068Z,5.95
2022-08-30T01:42:30.634Z,7.05
2022-08-30T01:44:57.172Z,7.47
2022-08-30T01:47:24.071Z,4.93
2022-08-30T01:49:51.137Z,12.68
2022-08-30T01:52:17.962Z,4.95
2022-08-30T01:54:45.818Z,5.45
2022-08-30T01:57:17.170Z,5.55
2022-08-30T01:59:47.585Z,5.55
2022-08-30T02:02:20.970Z,8.40
2022-08-30T02:04:47.703Z,6.95
2022-08-30T02:07:14.165Z,5.95
2022-08-30T02:09:44.166Z,5.97
2022-08-30T02:12:13.110Z,7.22
2022-08-30T02:14:39.765Z,5.95
2022-08-30T02:17:08.356Z,5.40
2022-08-30T02:19:35.234Z,5.65
2022-08-30T02:22:01.741Z,7.82
2022-08-30T02:24:28.321Z,7.60
2022-08-30T02:26:54.818Z,6.95
2022-08-30T02:29:23.110Z,7.00
2022-08-30T02:31:49.801Z,7.50
2022-08-30T02:34:17.345Z,5.50
2022-08-30T02:36:44.433Z,8.13
2022-08-30T02:39:12.683Z,7.40
2022-08-30T02:41:40.282Z,6.97
2022-08-30T02:44:08.377Z,6.95
2022-08-30T02:46:35.729Z,7.28
2022-08-30T02:49:13.115Z,8.98
2022-08-30T02:51:49.378Z,10.65
2022-08-30T02:54:19.825Z,8.23
2022-08-30T02:56:50.357Z,8.15
2022-08-30T02:59:18.066Z,7.38
2022-08-30T03:01:44.644Z,7.35
2022-08-30T03:04:11.457Z,10.18
2022-08-30T03:06:38.678Z,6.53
2022-08-30T03:09:05.185Z,9.63
2022-08-30T03:11:32.376Z,7.97
2022-08-30T03:13:59.453Z,8.00
2022-08-30T03:16:26.135Z,10.70
2022-08-30T03:18:52.665Z,11.43
2022-08-30T03:21:19.211Z,9.73
2022-08-30T03:23:46.003Z,8.45
2022-08-30T03:26:14.903Z,10.30
2022-08-30T03:28:42.910Z,11.70
2022-08-30T03:31:10.104Z,9.80
2022-08-30T03:33:37.378Z,11.23
2022-08-30T03:36:04.070Z,9.93
2022-08-30T03:38:31.132Z,9.55
2022-08-30T03:40:57.768Z,8.38
2022-08-30T03:43:25.322Z,9.35
2022-08-30T03:45:52.548Z,9.73
2022-08-30T03:48:19.070Z,9.52
2022-08-30T03:50:45.737Z,13.30
2022-08-30T03:53:12.567Z,9.15
2022-08-30T03:55:39.187Z,10.73
2022-08-30T03:58:05.749Z,8.57
2022-08-30T04:00:32.442Z,9.93
2022-08-30T04:02:59.326Z,12.02
2022-08-30T04:05:27.234Z,8.10
2022-08-30T04:07:53.709Z,9.95
2022-08-30T04:10:21.315Z,10.88
2022-08-30T04:12:49.909Z,11.05
2022-08-30T04:15:18.379Z,9.13
2022-08-30T04:17:45.206Z,9.90
2022-08-30T04:20:11.853Z,13.52
2022-08-30T04:22:38.443Z,9.73
2022-08-30T04:25:06.380Z,8.00
2022-08-30T04:27:32.923Z,8.57
2022-08-30T04:29:59.901Z,13.93
2022-08-30T04:32:26.813Z,10.35
2022-08-30T04:34:58.530Z,8.23
2022-08-30T04:37:25.657Z,9.05
2022-08-30T04:40:03.398Z,10.27
2022-08-30T04:42:32.953Z,11.75
2022-08-30T04:45:03.193Z,12.30
2022-08-30T04:47:29.704Z,8.13
2022-08-30T04:49:56.310Z,9.43
2022-08-30T04:52:22.962Z,14.75
2022-08-30T04:54:57.414Z,14.02
2022-08-30T04:57:25.019Z,10.05
2022-08-30T04:59:51.749Z,9.95
2022-08-30T05:02:18.544Z,10.77
2022-08-30T05:05:04.001Z,9.50
2022-08-30T05:07:32.057Z,10.15
2022-08-30T05:09:58.893Z,11.00
2022-08-30T05:12:25.594Z,13.98
2022-08-30T05:14:52.130Z,12.68
2022-08-30T05:17:18.857Z,9.20
2022-08-30T05:19:45.602Z,10.88
2022-08-30T05:22:12.329Z,10.57
2022-08-30T05:24:38.816Z,9.85
2022-08-30T05:27:05.630Z,9.05
2022-08-30T05:29:32.186Z,9.02
2022-08-30T05:31:59.149Z,13.07
2022-08-30T05:34:26.659Z,10.73
2022-08-30T05:36:53.542Z,9.32
2022-08-30T05:39:22.046Z,13.00
2022-08-30T05:41:49.664Z,11.02
2022-08-30T05:44:16.989Z,15.73
2022-08-30T05:46:46.156Z,12.10
2022-08-30T05:49:12.995Z,11.27
2022-08-30T05:51:43.219Z,9.75
2022-08-30T05:54:11.673Z,17.38
2022-08-30T05:56:40.128Z,12.05
2022-08-30T05:59:07.746Z,9.63
2022-08-30T06:01:40.876Z,13.05
2022-08-30T06:04:10.082Z,8.77
2022-08-30T06:06:38.377Z,11.68
2022-08-30T06:09:06.657Z,15.98
2022-08-30T06:11:33.845Z,15.60
2022-08-30T06:14:00.661Z,9.85
2022-08-30T06:16:28.298Z,8.88
2022-08-30T06:18:57.297Z,15.52
2022-08-30T06:21:34.136Z,12.00
2022-08-30T06:24:01.444Z,9.68
2022-08-30T06:26:29.090Z,12.70
2022-08-30T06:28:57.746Z,9.25
2022-08-30T06:31:26.066Z,13.00
2022-08-30T06:33:53.099Z,12.30
2022-08-30T06:36:22.405Z,13.77
2022-08-30T06:38:54.288Z,13.48
2022-08-30T06:41:24.508Z,11.48
2022-08-30T06:43:51.400Z,11.43
2022-08-30T06:46:30.567Z,10.77
2022-08-30T06:48:57.319Z,11.70
2022-08-30T06:51:30.246Z,12.85
2022-08-30T06:53:57.539Z,11.75
2022-08-30T06:56:27.419Z,13.85
2022-08-30T06:58:54.221Z,10.07
2022-08-30T07:01:23.751Z,7.97
2022-08-30T07:03:51.149Z,7.88
2022-08-30T07:06:19.000Z,12.65
2022-08-30T07:08:45.794Z,12.70
2022-08-30T07:11:12.326Z,8.60
2022-08-30T07:13:39.391Z,9.50
2022-08-30T07:16:13.128Z,9.27
2022-08-30T07:18:56.132Z,12.48
2022-08-30T07:21:29.022Z,9.88
2022-08-30T07:23:58.285Z,8.70
2022-08-30T07:26:28.875Z,9.32
2022-08-30T07:31:24.106Z,10.45
2022-08-30T07:33:51.054Z,11.50
2022-08-30T07:36:18.114Z,20.92
2022-08-30T07:38:46.581Z,9.07
2022-08-30T07:41:19.503Z,15.63
2022-08-30T07:43:46.843Z,12.77
2022-08-30T07:46:13.757Z,9.25
2022-08-30T07:48:40.804Z,14.63
2022-08-30T07:51:19.873Z,12.90
2022-08-30T07:53:46.547Z,9.38
2022-08-30T07:56:13.802Z,13.82
2022-08-30T07:58:40.367Z,9.85
2022-08-30T08:01:09.141Z,11.50
2022-08-30T08:03:36.635Z,12.90
2022-08-30T08:06:05.813Z,12.27
2022-08-30T08:08:33.028Z,10.80
2022-08-30T08:11:09.955Z,19.67
2022-08-30T08:13:47.285Z,8.38
2022-08-30T08:16:25.940Z,10.98
2022-08-30T08:18:53.797Z,7.68
2022-08-30T08:21:22.096Z,8.65
2022-08-30T08:23:49.017Z,9.35
2022-08-30T08:26:15.617Z,8.32
2022-08-30T08:28:42.196Z,7.28
2022-08-30T08:31:25.516Z,11.00
2022-08-30T08:36:30.225Z,8.10
2022-08-30T08:38:57.159Z,9.10
2022-08-30T08:41:51.181Z,9.00
2022-08-30T08:44:35.771Z,7.63
2022-08-30T08:47:17.262Z,10.10
2022-08-30T08:49:47.263Z,5.95
2022-08-30T08:52:40.677Z,7.95
2022-08-30T08:55:14.635Z,8.13
2022-08-30T08:57:41.612Z,12.18
2022-08-30T09:00:11.688Z,5.97
2022-08-30T09:02:56.514Z,8.07
2022-08-30T09:05:26.045Z,5.65
2022-08-30T09:07:59.422Z,4.20
2022-08-30T09:10:47.067Z,6.95
2022-08-30T09:13:14.021Z,9.70
2022-08-30T09:15:41.035Z,6.53
2022-08-30T09:18:19.471Z,7.15
2022-08-30T09:20:51.481Z,6.40
2022-08-30T09:23:21.092Z,4.88
2022-08-30T09:25:59.790Z,4.03
2022-08-30T09:28:29.093Z,6.93
2022-08-30T09:31:12.222Z,7.57
2022-08-30T09:33:38.988Z,6.15
2022-08-30T09:36:51.988Z,5.10
2022-08-30T09:39:31.315Z,4.65
2022-08-30T09:42:20.522Z,7.80
2022-08-30T09:44:47.196Z,3.75
2022-08-30T09:47:31.795Z,8.60
2022-08-30T09:50:21.118Z,5.82
2022-08-30T09:53:14.811Z,5.82
2022-08-30T09:55:56.955Z,3.45
2022-08-30T09:59:03.309Z,7.05
2022-08-30T10:01:34.957Z,10.13
2022-08-30T10:06:52.278Z,4.80
2022-08-30T10:09:41.261Z,5.03
2022-08-30T10:12:29.206Z,8.60
2022-08-30T10:15:29.635Z,2.17
2022-08-30T10:18:11.461Z,2.70
2022-08-30T10:23:18.397Z,4.25
2022-08-30T10:25:55.504Z,2.80
2022-08-30T10:28:31.446Z,3.03
2022-08-30T10:31:11.072Z,2.13
2022-08-30T10:33:47.993Z,3.78
2022-08-30T10:36:15.351Z,5.20
2022-08-30T10:38:48.035Z,2.65
2022-08-30T10:41:33.164Z,5.22
2022-08-30T10:44:26.184Z,4.68
2022-08-30T10:47:31.692Z,4.13
2022-08-30T10:50:14.194Z,5.85
2022-08-30T10:53:10.668Z,6.22
2022-08-30T10:55:49.844Z,2.22
2022-08-30T10:58:18.377Z,12.70
2022-08-30T11:01:12.388Z,1.38
2022-08-30T11:04:00.781Z,1.75
2022-08-30T11:06:35.054Z,1.35
2022-08-30T11:09:22.226Z,1.92
2022-08-30T11:12:22.351Z,1.67
2022-08-30T11:17:35.501Z,2.40
2022-08-30T11:20:05.699Z,2.58
2022-08-30T11:22:39.199Z,2.40
2022-08-30T11:25:13.921Z,4.10
2022-08-30T11:27:40.613Z,4.65
2022-08-30T11:30:26.664Z,1.95
2022-08-30T11:33:15.591Z,6.80
2022-08-30T11:35:52.577Z,1.23
2022-08-30T11:38:19.455Z,1.08
2022-08-30T11:40:54.837Z,3.78
2022-08-30T11:43:36.703Z,4.28
2022-08-30T11:46:21.114Z,3.55
2022-08-30T11:48:55.347Z,2.08
2022-08-30T11:51:23.386Z,3.10
2022-08-30T11:54:01.009Z,1.80
2022-08-30T11:56:42.362Z,3.25
2022-08-30T11:59:29.030Z,3.42
2022-08-30T12:01:58.140Z,3.05
2022-08-30T12:04:45.504Z,1.67
2022-08-30T12:07:32.651Z,4.75
2022-08-30T12:10:05.988Z,1.48
2022-08-30T12:12:39.319Z,5.22
2022-08-30T12:15:06.065Z,2.35
2022-08-30T12:18:03.163Z,2.30
2022-08-30T12:20:40.993Z,2.72
2022-08-30T12:23:27.736Z,2.30
2022-08-30T12:26:33.560Z,5.22
2022-08-30T12:29:09.332Z,5.32
2022-08-30T12:31:47.693Z,4.45
2022-08-30T12:34:26.094Z,1.40
2022-08-30T12:37:03.021Z,2.80
2022-08-30T12:39:34.933Z,2.83
2022-08-30T12:42:26.998Z,4.78
2022-08-30T12:44:57.874Z,1.80
2022-08-30T12:47:53.657Z,12.10
2022-08-30T12:50:31.382Z,7.20
2022-08-30T12:53:14.142Z,6.72
2022-08-30T12:56:02.963Z,8.57
2022-08-30T12:58:41.527Z,2.50
2022-08-30T13:01:19.740Z,2.13
2022-08-30T13:03:55.365Z,1.92
2022-08-30T13:06:50.934Z,4.63
2022-08-30T13:09:35.841Z,3.72
2022-08-30T13:12:19.979Z,2.85
2022-08-30T13:14:47.127Z,5.07
2022-08-30T13:17:20.449Z,3.20
2022-08-30T13:20:07.076Z,2.08
2022-08-30T13:22:39.533Z,2.65
2022-08-30T13:25:07.952Z,2.55
2022-08-30T13:27:37.147Z,3.85
2022-08-30T13:30:14.500Z,5.40
2022-08-30T13:32:41.330Z,1.65
2022-08-30T13:35:09.049Z,3.08
2022-08-30T13:37:52.101Z,3.47
2022-08-30T13:40:21.021Z,4.03
2022-08-30T13:42:48.419Z,3.75
2022-08-30T13:48:05.425Z,4.80
2022-08-30T13:50:32.954Z,2.60
2022-08-30T13:52:59.405Z,2.85
2022-08-30T13:55:26.741Z,3.92
2022-08-30T13:57:55.221Z,4.50
2022-08-30T14:00:23.683Z,4.88
2022-08-30T14:02:54.442Z,4.05
2022-08-30T14:06:00.527Z,2.72
2022-08-30T14:11:18.448Z,6.18
2022-08-30T14:16:32.306Z,6.38
2022-08-30T14:19:00.679Z,5.90
2022-08-30T14:21:28.070Z,7.50
2022-08-30T14:23:56.866Z,6.85
2022-08-30T14:26:32.267Z,4.28
2022-08-30T14:28:59.703Z,4.88
2022-08-30T14:31:26.319Z,4.30
2022-08-30T14:33:53.062Z,4.68
2022-08-30T14:36:19.912Z,4.20
2022-08-30T14:38:48.551Z,7.90
2022-08-30T14:41:15.436Z,5.28
2022-08-30T14:43:42.074Z,4.35
2022-08-30T14:46:10.439Z,4.05
2022-08-30T14:48:38.315Z,5.35
2022-08-30T14:51:13.233Z,5.30
2022-08-30T14:53:40.567Z,3.35
2022-08-30T14:56:09.976Z,3.95
2022-08-30T14:58:36.596Z,4.63
2022-08-30T15:01:08.291Z,6.03
2022-08-30T15:03:36.966Z,4.53
2022-08-30T15:06:03.905Z,3.13
2022-08-30T15:08:30.430Z,2.72
2022-08-30T15:10:58.872Z,10.48
2022-08-30T15:13:26.205Z,5.15
2022-08-30T15:15:53.230Z,8.85
2022-08-30T15:18:19.931Z,3.58
2022-08-30T15:20:47.972Z,3.30
2022-08-30T15:23:16.837Z,7.05
2022-08-30T15:25:43.825Z,3.10
2022-08-30T15:28:10.322Z,5.75
2022-08-30T15:30:37.565Z,6.00
2022-08-30T15:33:04.294Z,7.95
2022-08-30T15:35:33.083Z,5.10
2022-08-30T15:37:59.772Z,6.90
2022-08-30T15:40:28.210Z,3.63
2022-08-30T15:42:54.771Z,5.70
2022-08-30T15:45:21.442Z,4.57
2022-08-30T15:47:48.106Z,5.30
2022-08-30T15:50:19.345Z,3.78
2022-08-30T15:52:46.105Z,2.97
2022-08-30T15:55:12.566Z,4.43
2022-08-30T15:57:39.053Z,4.35
2022-08-30T16:00:09.280Z,3.67
2022-08-30T16:02:36.039Z,4.85
2022-08-30T16:05:04.232Z,5.68
2022-08-30T16:07:30.827Z,5.78
2022-08-30T16:09:57.944Z,7.05
2022-08-30T16:12:24.807Z,3.03
2022-08-30T16:14:51.979Z,5.28
2022-08-30T16:17:18.582Z,5.05
2022-08-30T16:19:45.098Z,5.22
2022-08-30T16:22:11.791Z,4.45
2022-08-30T16:24:38.843Z,7.22
2022-08-30T16:27:05.764Z,3.15
2022-08-30T16:29:35.672Z,4.60
2022-08-30T16:32:02.312Z,3.78
2022-08-30T16:34:28.934Z,5.18
2022-08-30T16:36:55.470Z,6.75
2022-08-30T16:39:22.329Z,3.20
2022-08-30T16:41:49.032Z,10.18
2022-08-30T16:44:18.395Z,5.75
2022-08-30T16:46:53.337Z,3.80
2022-08-30T16:49:22.608Z,5.45
2022-08-30T16:51:50.518Z,4.53
2022-08-30T16:54:17.530Z,8.75
2022-08-30T16:56:44.189Z,6.63
2022-08-30T16:59:13.088Z,5.53
2022-08-30T17:01:42.286Z,3.35
2022-08-30T17:04:10.264Z,2.83
2022-08-30T17:06:37.280Z,3.40
2022-08-30T17:09:05.698Z,5.55
2022-08-30T17:11:33.166Z,3.83
2022-08-30T17:13:59.976Z,5.88
2022-08-30T17:16:29.749Z,5.07
2022-08-30T17:18:59.597Z,1.67
2022-08-30T17:21:28.438Z,3.97
2022-08-30T17:23:58.445Z,3.70
2022-08-30T17:26:29.103Z,3.33
2022-08-30T17:28:55.597Z,5.60
2022-08-30T17:31:22.528Z,4.75
2022-08-30T17:33:50.130Z,2.85
2022-08-30T17:36:16.648Z,5.20
2022-08-30T17:38:45.148Z,4.63
2022-08-30T17:41:12.940Z,5.50
2022-08-30T17:43:40.094Z,2.45
2022-08-30T17:46:11.646Z,5.20
2022-08-30T17:51:06.369Z,9.20
2022-08-30T17:53:35.652Z,5.57
2022-08-30T17:56:04.280Z,4.82
2022-08-30T17:58:31.387Z,12.65
2022-08-30T18:01:11.615Z,5.60
2022-08-30T18:03:38.829Z,7.97
2022-08-30T18:06:07.128Z,5.90
2022-08-30T18:08:34.774Z,4.20
2022-08-30T18:11:04.227Z,4.25
2022-08-30T18:13:33.205Z,4.95
2022-08-30T18:16:02.289Z,5.15
2022-08-30T18:18:29.398Z,5.40
2022-08-30T18:20:56.301Z,3.42
2022-08-30T18:23:23.957Z,4.68
2022-08-30T18:25:55.998Z,5.18
2022-08-30T18:28:22.491Z,5.82
2022-08-30T18:30:49.038Z,7.10
2022-08-30T18:33:15.629Z,5.13
2022-08-30T18:35:48.446Z,7.25
2022-08-30T18:38:15.166Z,5.35
2022-08-30T18:40:41.886Z,4.43
2022-08-30T18:43:10.787Z,3.67
2022-08-30T18:45:41.721Z,8.70
2022-08-30T18:48:08.253Z,5.07
2022-08-30T18:50:36.645Z,5.45
2022-08-30T18:53:03.200Z,5.25
2022-08-30T18:55:29.659Z,6.05
2022-08-30T18:57:56.162Z,3.97
2022-08-30T19:00:23.508Z,5.65
2022-08-30T19:02:50.276Z,3.40
2022-08-30T19:05:18.850Z,5.55
2022-08-30T19:07:46.335Z,3.60
2022-08-30T19:10:16.999Z,3.30
2022-08-30T19:12:47.696Z,3.53
2022-08-30T19:15:15.999Z,4.00
2022-08-30T19:17:45.261Z,7.95
2022-08-30T19:20:15.266Z,5.22
2022-08-30T19:23:06.315Z,5.65
2022-08-30T19:25:28.958Z,5.60
2022-08-30T19:27:55.762Z,5.25
2022-08-30T19:30:29.626Z,4.32
2022-08-30T19:32:56.890Z,4.47
2022-08-30T19:35:24.733Z,4.50
2022-08-30T19:37:51.410Z,5.55
2022-08-30T19:40:20.068Z,5.40
2022-08-30T19:42:47.296Z,4.75
2022-08-30T19:45:17.725Z,4.30
2022-08-30T19:47:45.175Z,4.35
2022-08-30T19:50:14.504Z,5.80
2022-08-30T19:52:40.982Z,5.28
2022-08-30T19:55:09.971Z,4.20
2022-08-30T19:57:37.570Z,3.17
2022-08-30T20:00:11.336Z,8.38
2022-08-30T20:02:38.920Z,7.13
2022-08-30T20:05:06.325Z,3.45
2022-08-30T20:07:36.128Z,4.78
2022-08-30T20:10:07.066Z,3.13
2022-08-30T20:12:34.865Z,7.13
2022-08-30T20:15:03.304Z,6.53
2022-08-30T20:17:42.474Z,7.97
2022-08-30T20:20:20.786Z,6.15
2022-08-30T20:22:50.942Z,4.82
2022-08-30T20:27:47.416Z,5.70
2022-08-30T20:30:15.169Z,3.92
2022-08-30T20:32:45.083Z,7.00
2022-08-30T20:35:15.850Z,4.63
2022-08-30T20:37:44.292Z,5.00
2022-08-30T20:40:15.536Z,7.13
2022-08-30T20:45:14.919Z,2.28
2022-08-30T20:47:42.908Z,2.85
2022-08-30T20:50:13.614Z,4.43
2022-08-30T20:52:40.673Z,4.73
2022-08-30T20:55:08.266Z,4.78
2022-08-30T20:57:34.862Z,5.25
2022-08-30T21:00:01.928Z,2.95
2022-08-30T21:02:28.616Z,5.05
2022-08-30T21:04:55.162Z,4.03
2022-08-30T21:07:21.682Z,4.97
2022-08-30T21:09:48.239Z,4.75
2022-08-30T21:12:14.740Z,4.22
2022-08-30T21:14:41.212Z,3.28
2022-08-30T21:17:07.848Z,3.20
2022-08-30T21:19:34.499Z,5.32
2022-08-30T21:22:01.646Z,4.45
2022-08-30T21:24:28.176Z,5.57
2022-08-30T21:26:55.719Z,3.80
2022-08-30T21:29:22.418Z,3.50
2022-08-30T21:31:49.031Z,2.58
2022-08-30T21:34:17.236Z,4.32
2022-08-30T21:36:47.134Z,1.63
2022-08-30T21:39:13.581Z,1.70
2022-08-30T21:41:40.529Z,3.03
2022-08-30T21:44:10.845Z,2.00
2022-08-30T21:46:37.784Z,4.25
2022-08-30T21:49:06.684Z,2.30
2022-08-30T21:51:36.453Z,2.70
2022-08-30T21:54:04.569Z,5.55
2022-08-30T21:56:31.093Z,11.65
2022-08-30T21:58:58.259Z,2.17
2022-08-30T22:01:27.880Z,2.75
2022-08-30T22:03:57.209Z,3.80
2022-08-30T22:06:25.193Z,4.57
2022-08-30T22:08:57.376Z,5.45
2022-08-30T22:11:26.027Z,6.10
2022-08-30T22:13:53.885Z,2.95
2022-08-30T22:16:22.153Z,3.67
2022-08-30T22:18:49.449Z,6.07
2022-08-30T22:21:19.054Z,2.97
2022-08-30T22:23:45.890Z,4.57
2022-08-30T22:26:15.081Z,4.22
2022-08-30T22:28:41.676Z,2.95
2022-08-30T22:31:11.681Z,8.73
2022-08-30T22:33:38.347Z,3.78
2022-08-30T22:36:10.298Z,2.15
2022-08-30T22:38:37.103Z,2.17
2022-08-30T22:41:08.266Z,2.83
2022-08-30T22:43:34.778Z,4.07
2022-08-30T22:46:01.404Z,1.77
2022-08-30T22:48:28.032Z,4.85
2022-08-30T22:50:54.522Z,2.20
2022-08-30T22:53:21.063Z,2.95
2022-08-30T22:55:47.628Z,2.40
2022-08-30T22:58:14.172Z,2.90
2022-08-30T23:00:46.379Z,3.47
2022-08-30T23:03:21.811Z,6.13
2022-08-30T23:05:48.372Z,5.47
2022-08-30T23:08:14.868Z,2.53
2022-08-30T23:10:41.430Z,5.18
2022-08-30T23:13:07.966Z,7.47
2022-08-30T23:15:34.521Z,10.05
2022-08-30T23:18:01.034Z,3.22
2022-08-30T23:20:27.657Z,2.75
2022-08-30T23:23:00.037Z,2.85
2022-08-30T23:25:52.056Z,3.88
2022-08-30T23:28:39.144Z,4.22
2022-08-30T23:31:32.337Z,3.97
2022-08-30T23:34:18.129Z,6.03
2022-08-30T23:37:03.590Z,5.00
2022-08-30T23:39:48.760Z,6.00
2022-08-30T23:42:34.137Z,1.73
2022-08-30T23:45:19.157Z,3.40
2022-08-30T23:48:03.858Z,3.22
2022-08-30T23:50:48.937Z,4.30
2022-08-30T23:53:33.602Z,3.60
2022-08-30T23:56:18.787Z,5.55
2022-08-30T23:59:03.958Z,5.85
